Time;durP1;ratioP1;P1;durP2;ratioP2;P2;SDS_P1;SDS_P2;PMS_P1;PMS_P2;Temp;Humidity;BMP_temperature;BMP_pressure;BME280_temperature;BME280_humidity;BME280_pressure;Samples;Min_cycle;Max_cycle;Signal;HPM_P1;HPM_P2
2021/05/18 00:25:14;;;;;;;3.13;1.65;;;;;;;19.58;47.41;100043.94;31291296;28;20303;-59
2021/05/18 00:40:16;;;;;;;2.33;1.30;;;;;;;19.55;47.44;100041.63;31496616;28;20032;-58
2021/05/18 00:55:20;;;;;;;4.53;1.45;;;;;;;19.56;47.59;100041.50;31496479;28;20094;-58
2021/05/18 01:10:21;;;;;;;3.33;1.25;;;;;;;19.55;46.96;100054.81;31421444;28;20029;-59
2021/05/18 01:25:22;;;;;;;2.50;1.33;;;;;;;19.52;47.77;100076.22;31269686;28;20390;-60
2021/05/18 01:55:34;;;;;;;3.30;1.40;;;;;;;19.51;47.48;100101.72;31487794;28;20064;-59
2021/05/18 02:10:35;;;;;;;2.10;1.13;;;;;;;19.50;47.50;100112.44;31487567;28;20039;-58
2021/05/18 02:25:36;;;;;;;2.47;1.20;;;;;;;19.48;47.47;100131.00;31443472;28;20032;-58
2021/05/18 02:40:40;;;;;;;2.13;1.02;;;;;;;19.48;47.66;100148.66;31360043;28;20291;-59
2021/05/18 02:55:59;;;;;;;2.17;1.13;;;;;;;19.46;47.48;100152.22;31359088;28;20079;-58
2021/05/18 03:11:00;;;;;;;2.70;1.17;;;;;;;19.46;47.51;100175.13;31339221;28;20045;-59
2021/05/18 03:26:01;;;;;;;2.30;1.17;;;;;;;19.45;47.51;100182.22;31319716;28;20070;-59
2021/05/18 03:41:11;;;;;;;2.30;1.20;;;;;;;19.47;47.63;100192.63;31507929;28;20290;-61
2021/05/18 04:11:50;;;;;;;2.20;1.10;;;;;;;19.53;47.16;100221.00;31505070;28;20033;-60
2021/05/18 04:42:44;;;;;;;2.05;0.88;;;;;;;19.65;46.88;100240.09;31378900;28;20094;-60
2021/05/18 05:28:17;;;;;;;2.97;1.23;;;;;;;19.73;46.56;100285.06;31326571;28;20611;-54
2021/05/18 05:43:18;;;;;;;2.77;1.00;;;;;;;19.95;46.13;100306.72;31361772;28;20037;-58
2021/05/18 05:58:19;;;;;;;2.27;0.87;;;;;;;19.91;46.19;100316.75;31351350;28;20292;-59
2021/05/18 07:14:20;;;;;;;7.37;3.60;;;;;;;18.43;50.18;100398.72;31337930;28;20467;-59
2021/05/18 07:29:21;;;;;;;4.40;3.23;;;;;;;18.87;47.95;100408.09;31348857;28;20312;-60
2021/05/18 07:44:22;;;;;;;5.38;3.25;;;;;;;19.07;47.91;100416.84;31336365;28;20299;-58
2021/05/18 07:59:29;;;;;;;4.90;3.10;;;;;;;19.19;47.65;100442.06;31355446;28;20056;-55
2021/05/18 08:14:32;;;;;;;4.28;2.72;;;;;;;19.50;45.94;100450.63;31338558;28;21866;-58
2021/05/18 10:47:44;;;;;;;4.33;1.70;;;;;;;21.41;42.87;100520.50;31344886;28;20483;-64
2021/05/18 11:02:45;;;;;;;4.75;2.20;;;;;;;21.69;42.48;100515.94;31358911;28;20102;-63
2021/05/18 11:17:50;;;;;;;7.05;2.00;;;;;;;22.21;41.27;100519.56;31280930;28;20045;-64
2021/05/18 11:32:54;;;;;;;4.07;2.17;;;;;;;22.08;41.55;100510.25;31399829;28;20089;-65
2021/05/18 11:47:55;;;;;;;3.70;1.98;;;;;;;21.41;43.06;100493.22;31349703;28;20491;-67
2021/05/18 12:03:04;;;;;;;5.43;2.00;;;;;;;21.41;43.75;100496.69;31347297;28;20479;-65
2021/05/18 12:18:05;;;;;;;3.95;2.00;;;;;;;21.29;43.59;100509.28;31343854;28;20292;-67
2021/05/18 12:33:07;;;;;;;8.10;2.43;;;;;;;20.91;42.30;100520.97;31362637;28;20044;-67
2021/05/18 12:48:09;;;;;;;6.00;2.50;;;;;;;20.64;42.53;100520.03;31323606;28;20284;-67
2021/05/18 13:03:19;;;;;;;4.78;2.42;;;;;;;20.60;42.98;100526.56;31348000;28;20025;-66
2021/05/18 13:18:20;;;;;;;4.03;2.30;;;;;;;20.64;42.47;100524.50;31326357;28;20041;-67
2021/05/18 13:33:21;;;;;;;3.90;2.60;;;;;;;21.04;41.61;100526.72;31348817;28;20401;-68
2021/05/18 13:48:22;;;;;;;3.63;2.03;;;;;;;21.33;41.30;100526.53;31345355;28;20279;-66
2021/05/18 14:03:23;;;;;;;4.33;2.23;;;;;;;21.31;40.26;100517.91;31350121;28;20688;-68
2021/05/18 14:18:24;;;;;;;3.50;2.00;;;;;;;21.26;40.25;100516.72;31346574;28;20282;-66
2021/05/18 14:33:25;;;;;;;2.70;1.53;;;;;;;21.16;39.94;100508.84;31364663;28;20787;-63
2021/05/18 15:03:34;;;;;;;4.35;1.77;;;;;;;20.14;38.34;100512.44;31369934;28;20299;-65
2021/05/18 15:18:35;;;;;;;5.45;1.83;;;;;;;20.49;40.42;100516.16;31355699;28;20033;-64
2021/05/18 15:33:36;;;;;;;3.53;1.83;;;;;;;20.60;40.60;100526.56;31351157;28;20106;-64
2021/05/18 15:48:37;;;;;;;3.17;1.45;;;;;;;20.73;40.79;100534.16;31372699;28;20040;-63
2021/05/18 16:03:38;;;;;;;2.83;1.45;;;;;;;20.68;41.52;100544.31;31402373;28;20033;-58
2021/05/18 16:18:39;;;;;;;4.07;2.85;;;;;;;20.68;41.65;100549.59;31387736;28;20075;-60
2021/05/18 16:33:40;;;;;;;3.20;2.00;;;;;;;20.58;41.66;100540.91;31345718;28;20516;-58
2021/05/18 16:48:41;;;;;;;3.25;1.77;;;;;;;20.47;42.10;100557.72;31285928;28;20338;-59
2021/05/18 17:03:43;;;;;;;4.03;1.83;;;;;;;20.43;42.90;100569.53;31342511;28;20410;-58
2021/05/18 17:18:44;;;;;;;4.07;1.77;;;;;;;20.35;43.50;100567.63;31336739;28;20369;-59
2021/05/18 17:33:45;;;;;;;3.87;1.87;;;;;;;20.25;43.69;100557.13;31457656;28;20431;-58
2021/05/18 17:48:46;;;;;;;3.53;1.80;;;;;;;20.17;43.43;100564.06;31491405;28;20273;-57
2021/05/18 18:03:47;;;;;;;6.60;1.83;;;;;;;20.12;44.01;100561.03;31381869;28;20286;-57
2021/05/18 18:18:49;;;;;;;5.20;2.05;;;;;;;20.09;43.86;100570.06;31395032;28;20291;-58
2021/05/18 18:33:50;;;;;;;4.72;2.65;;;;;;;19.41;39.60;100570.91;31353229;28;20057;-58
2021/05/18 18:48:52;;;;;;;5.37;2.43;;;;;;;18.55;40.94;100578.41;31348144;28;20055;-60
2021/05/18 19:03:54;;;;;;;6.70;2.88;;;;;;;18.08;42.03;100578.03;31334297;28;20299;-58
2021/05/18 19:18:55;;;;;;;5.07;2.75;;;;;;;18.65;43.19;100588.16;31328267;28;20037;-54
2021/05/18 19:33:57;;;;;;;5.72;4.32;;;;;;;18.96;42.70;100602.16;31307042;28;20037;-59
2021/05/18 19:49:11;;;;;;;5.75;3.33;;;;;;;19.13;42.82;100617.31;31333552;28;20024;-58
2021/05/18 20:49:49;;;;;;;3.45;2.42;;;;;;;19.43;44.51;100642.78;31358369;28;20032;-57
2021/05/18 21:04:50;;;;;;;4.43;3.08;;;;;;;19.47;44.64;100648.63;31384514;28;21193;-59
2021/05/18 21:19:51;;;;;;;3.73;2.60;;;;;;;19.50;44.82;100663.31;31341097;28;20517;-58
2021/05/18 21:34:52;;;;;;;5.90;2.80;;;;;;;19.51;44.67;100663.16;31361111;28;20293;-57
2021/05/18 21:49:53;;;;;;;8.43;4.38;;;;;;;19.50;44.74;100669.44;31283786;28;20287;-57
2021/05/18 22:04:54;;;;;;;6.93;3.50;;;;;;;19.51;44.64;100671.06;31221899;28;20041;-58
2021/05/18 22:35:15;;;;;;;5.28;3.30;;;;;;;19.51;44.41;100663.16;31296432;28;20292;-60
2021/05/18 22:50:16;;;;;;;5.40;3.63;;;;;;;19.44;43.26;100654.13;31256665;28;20068;-59
2021/05/18 23:05:17;;;;;;;7.30;3.40;;;;;;;19.35;44.00;100654.97;31316739;28;20036;-58
2021/05/18 23:20:21;;;;;;;5.70;3.28;;;;;;;19.33;44.23;100664.78;31355200;28;20333;-59
2021/05/18 23:35:21;;;;;;;4.90;3.13;;;;;;;19.32;44.06;100661.34;31443340;28;20041;-60
2021/05/18 23:50:22;;;;;;;4.27;2.90;;;;;;;19.32;44.39;100653.44;31383357;28;20024;-60
